Time;durP1;ratioP1;P1;durP2;ratioP2;P2;SDS_P1;SDS_P2;PMS_P1;PMS_P2;Temp;Humidity;BMP_temperature;BMP_pressure;BME280_temperature;BME280_humidity;BME280_pressure;Samples;Min_cycle;Max_cycle;Signal;HPM_P1;HPM_P2
2022/12/26 00:02:06;;;;;;;25.10;14.10;;;;;;;5.08;90.64;99892.02;207695;1296;140680;-66
2022/12/26 00:07:10;;;;;;;24.50;15.50;;;;;;;5.02;90.46;99875.84;208274;1278;139088;-68
2022/12/26 00:12:15;;;;;;;24.80;13.60;;;;;;;4.99;90.69;99869.60;207704;1295;140749;-68
2022/12/26 00:17:21;;;;;;;22.80;14.50;;;;;;;4.98;90.89;99863.21;207568;1284;139372;-68
2022/12/26 00:22:28;;;;;;;21.10;13.70;;;;;;;5.01;90.97;99847.38;210407;1301;140928;-68
2022/12/26 00:27:33;;;;;;;18.20;10.40;;;;;;;5.02;91.08;99833.64;210454;1295;141177;-69
2022/12/26 00:32:40;;;;;;;19.40;12.10;;;;;;;5.03;90.72;99829.10;210389;1294;140627;-69
2022/12/26 00:37:52;;;;;;;25.70;12.20;;;;;;;5.03;91.06;99814.59;210079;1295;219595;-67
2022/12/26 00:42:59;;;;;;;23.30;11.00;;;;;;;5.05;90.93;99788.30;210414;1296;139254;-67
2022/12/26 00:48:05;;;;;;;19.20;12.80;;;;;;;5.10;91.04;99789.30;208014;1294;224754;-68
2022/12/26 00:53:14;;;;;;;20.80;11.20;;;;;;;5.13;90.95;99787.04;207876;1302;139233;-67
2022/12/26 00:58:21;;;;;;;24.30;14.00;;;;;;;5.14;91.04;99778.23;208764;1292;140094;-67
2022/12/26 01:03:27;;;;;;;21.20;13.20;;;;;;;5.10;90.91;99785.20;208004;1284;139197;-69
2022/12/26 01:08:32;;;;;;;21.60;13.50;;;;;;;5.13;91.04;99784.08;208462;1297;140404;-67
2022/12/26 01:13:39;;;;;;;17.80;10.90;;;;;;;5.20;91.27;99789.05;207642;1287;139787;-67
2022/12/26 01:18:44;;;;;;;17.60;12.20;;;;;;;5.23;91.25;99793.39;208637;1289;139842;-65
2022/12/26 01:23:49;;;;;;;17.30;13.10;;;;;;;5.27;90.86;99773.57;207749;1286;153551;-69
2022/12/26 01:28:54;;;;;;;19.60;11.70;;;;;;;5.24;91.12;99783.27;207774;1284;140369;-68
2022/12/26 01:33:59;;;;;;;17.80;9.90;;;;;;;5.24;90.91;99787.95;207768;1287;139034;-68
2022/12/26 01:39:04;;;;;;;25.80;13.20;;;;;;;5.22;91.14;99776.77;207549;1285;140195;-68
2022/12/26 01:44:45;;;;;;;14.00;10.10;;;;;;;5.25;91.01;99784.21;207648;1293;142163;-67
2022/12/26 01:49:53;;;;;;;20.80;12.00;;;;;;;5.20;91.16;99767.25;208038;1283;225402;-67
2022/12/26 01:54:59;;;;;;;22.10;12.80;;;;;;;5.17;90.76;99774.13;208323;1285;140932;-67
2022/12/26 02:00:04;;;;;;;21.80;13.50;;;;;;;5.14;91.13;99745.70;207400;1295;140678;-66
2022/12/26 02:10:41;;;;;;;26.40;14.60;;;;;;;5.08;91.17;99711.37;207632;1295;139482;-66
2022/12/26 02:15:47;;;;;;;17.50;11.00;;;;;;;5.05;91.04;99710.14;207706;1301;139796;-67
2022/12/26 02:20:56;;;;;;;23.40;15.40;;;;;;;5.05;91.53;99701.52;209457;1287;140292;-68
2022/12/26 02:26:34;;;;;;;21.80;12.20;;;;;;;5.08;91.39;99700.55;207691;1295;141279;-67
2022/12/26 02:31:58;;;;;;;16.80;12.70;;;;;;;5.08;91.22;99678.16;210525;1295;139409;-65
2022/12/26 02:37:37;;;;;;;21.40;12.40;;;;;;;5.05;90.98;99643.64;209593;1298;140220;-67
2022/12/26 02:42:50;;;;;;;25.70;13.70;;;;;;;5.04;91.45;99643.56;208590;1286;224216;-67
2022/12/26 02:48:10;;;;;;;32.10;14.20;;;;;;;5.03;91.15;99631.86;207428;1285;140667;-69
2022/12/26 03:21:28;;;;;;;24.10;13.60;;;;;;;5.08;91.69;99567.56;207521;1291;139431;-68
2022/12/26 03:26:38;;;;;;;29.60;14.90;;;;;;;5.12;91.71;99569.60;207593;1295;140986;-68
2022/12/26 03:31:43;;;;;;;32.50;16.00;;;;;;;5.17;91.99;99577.41;207296;1285;140655;-67
2022/12/26 03:37:12;;;;;;;20.00;12.40;;;;;;;5.22;91.63;99560.88;207519;1286;140399;-68
2022/12/26 04:54:23;;;;;;;22.20;14.90;;;;;;;5.57;91.49;99498.81;208621;1279;141318;-67
2022/12/26 04:59:27;;;;;;;23.50;12.70;;;;;;;5.55;91.47;99489.17;207809;1278;138736;-67
2022/12/26 05:09:56;;;;;;;18.60;11.80;;;;;;;5.57;92.08;99479.94;207874;1294;140323;-68
2022/12/26 05:15:01;;;;;;;24.20;12.90;;;;;;;5.60;92.03;99470.65;208224;1295;140133;-67
2022/12/26 05:31:02;;;;;;;24.00;13.70;;;;;;;5.71;91.74;99431.96;207800;1278;237402;-68
2022/12/26 05:36:08;;;;;;;27.10;15.70;;;;;;;5.70;91.86;99433.64;207797;1294;139235;-67
2022/12/26 05:41:13;;;;;;;22.60;13.50;;;;;;;5.82;92.48;99450.90;207664;1285;140319;-68
2022/12/26 05:46:19;;;;;;;22.80;14.10;;;;;;;5.90;92.35;99451.84;208016;1294;139274;-68
2022/12/26 05:51:26;;;;;;;19.90;11.50;;;;;;;6.02;92.41;99443.27;207759;1293;140708;-67
2022/12/26 05:56:30;;;;;;;21.30;11.70;;;;;;;6.08;92.59;99429.04;208229;1286;139814;-68
2022/12/26 06:01:37;;;;;;;21.30;10.70;;;;;;;6.17;92.49;99431.38;208529;1292;140322;-67
2022/12/26 06:06:41;;;;;;;18.30;11.40;;;;;;;6.27;92.45;99419.73;207805;1278;139959;-67
2022/12/26 06:11:45;;;;;;;15.30;10.80;;;;;;;6.32;92.53;99423.13;207769;1293;140557;-67
2022/12/26 06:16:53;;;;;;;17.90;11.50;;;;;;;6.42;92.95;99428.96;208892;1294;230916;-68
2022/12/26 06:21:58;;;;;;;15.20;11.60;;;;;;;6.53;92.68;99435.08;210522;1278;140382;-68
2022/12/26 06:27:02;;;;;;;18.90;11.40;;;;;;;6.61;92.62;99431.30;210540;1293;139630;-69
2022/12/26 06:32:11;;;;;;;14.40;9.10;;;;;;;6.73;92.88;99420.92;209387;1298;140645;-67
2022/12/26 06:37:15;;;;;;;15.60;10.50;;;;;;;6.80;92.52;99411.86;207746;1288;142044;-67
2022/12/26 06:42:20;;;;;;;13.40;9.60;;;;;;;6.84;92.40;99416.39;207913;1278;140090;-66
2022/12/26 06:47:25;;;;;;;14.10;8.60;;;;;;;6.91;92.24;99408.61;207778;1282;140082;-68
2022/12/26 06:52:29;;;;;;;16.00;8.90;;;;;;;6.95;92.42;99405.15;207866;1285;141044;-67
2022/12/26 06:57:32;;;;;;;11.30;8.00;;;;;;;6.98;92.38;99421.30;207748;1294;208271;-67
2022/12/26 07:02:36;;;;;;;19.40;10.50;;;;;;;7.07;92.51;99429.27;207750;1286;139760;-67
2022/12/26 07:07:41;;;;;;;16.80;8.80;;;;;;;7.10;92.17;99426.64;207946;1291;139523;-67
2022/12/26 07:12:47;;;;;;;13.90;9.40;;;;;;;7.16;92.13;99419.69;207599;1278;140052;-70
2022/12/26 07:17:51;;;;;;;12.60;10.30;;;;;;;7.22;92.06;99422.54;207797;1278;140087;-69
2022/12/26 07:22:57;;;;;;;12.50;8.30;;;;;;;7.23;92.05;99419.16;207770;1290;139380;-67
2022/12/26 07:28:03;;;;;;;15.30;8.60;;;;;;;7.30;92.30;99418.02;208310;1293;140081;-67
2022/12/26 07:33:09;;;;;;;11.60;9.20;;;;;;;7.35;92.11;99433.39;207985;1278;139798;-67
2022/12/26 07:38:15;;;;;;;14.60;9.80;;;;;;;7.38;92.15;99445.27;208174;1293;139192;-67
2022/12/26 07:43:21;;;;;;;14.80;8.90;;;;;;;7.46;91.78;99444.86;208062;1294;140856;-67
2022/12/26 07:48:29;;;;;;;14.10;9.10;;;;;;;7.55;92.12;99426.61;209012;1294;140356;-68
2022/12/26 07:53:35;;;;;;;11.90;8.00;;;;;;;7.63;91.96;99421.73;208789;1280;141511;-67
2022/12/26 07:58:40;;;;;;;14.10;9.70;;;;;;;7.79;91.40;99415.97;208791;1292;140926;-68
2022/12/26 08:03:48;;;;;;;11.00;8.40;;;;;;;7.89;91.66;99416.30;209478;1286;140056;-68
2022/12/26 08:08:51;;;;;;;11.70;7.70;;;;;;;7.98;91.48;99435.92;207375;1293;140883;-68
2022/12/26 08:13:56;;;;;;;12.10;7.90;;;;;;;8.18;91.50;99447.95;207634;1285;142534;-67
2022/12/26 08:19:02;;;;;;;15.50;9.90;;;;;;;8.25;91.34;99445.23;210742;1287;140344;-68
2022/12/26 08:24:06;;;;;;;13.30;7.60;;;;;;;8.28;91.13;99438.44;210489;1295;140411;-68
2022/12/26 08:29:10;;;;;;;14.10;7.20;;;;;;;8.37;90.87;99426.70;210071;1285;139736;-67
2022/12/26 08:34:13;;;;;;;13.70;7.90;;;;;;;8.40;90.94;99421.73;208445;1285;139239;-68
2022/12/26 08:39:17;;;;;;;8.70;6.70;;;;;;;8.45;90.60;99425.19;208331;1282;365889;-67
2022/12/26 08:44:21;;;;;;;11.60;6.50;;;;;;;8.50;90.35;99438.02;207557;1287;140437;-68
2022/12/26 08:49:30;;;;;;;10.60;7.10;;;;;;;8.48;90.40;99438.86;207899;1293;139844;-68
2022/12/26 08:54:34;;;;;;;9.80;7.10;;;;;;;8.51;90.26;99431.40;207820;1298;140376;-69
2022/12/26 08:59:38;;;;;;;11.40;6.90;;;;;;;8.56;90.33;99429.44;208439;1294;140407;-68
2022/12/26 09:04:44;;;;;;;7.70;5.80;;;;;;;8.55;90.20;99440.07;207640;1288;246508;-68
2022/12/26 09:09:47;;;;;;;14.40;7.60;;;;;;;8.57;90.13;99438.17;207616;1294;138903;-67
2022/12/26 09:14:52;;;;;;;8.90;6.40;;;;;;;8.65;89.98;99444.59;207486;1294;140270;-67
2022/12/26 09:19:57;;;;;;;7.40;6.60;;;;;;;8.69;90.07;99443.11;207388;1294;139542;-68
2022/12/26 09:25:04;;;;;;;12.40;7.50;;;;;;;8.72;89.91;99438.73;208243;1293;139785;-68
2022/12/26 09:30:09;;;;;;;15.00;8.20;;;;;;;8.81;89.66;99441.16;207659;1293;141402;-68
2022/12/26 09:35:15;;;;;;;13.90;7.40;;;;;;;8.81;89.69;99430.05;208556;1287;140906;-68
2022/12/26 09:40:27;;;;;;;9.90;7.00;;;;;;;8.91;89.70;99433.50;207628;1294;141562;-68
2022/12/26 09:45:58;;;;;;;8.40;6.00;;;;;;;9.03;89.61;99437.58;207956;1293;140081;-68
2022/12/26 09:51:04;;;;;;;6.90;5.40;;;;;;;9.10;89.35;99431.36;207696;1294;139000;-68
2022/12/26 09:56:15;;;;;;;10.00;6.90;;;;;;;9.15;89.20;99423.91;208954;1293;139601;-67
2022/12/26 10:01:43;;;;;;;10.40;7.20;;;;;;;9.21;89.17;99428.76;208091;1294;140508;-68
2022/12/26 10:07:12;;;;;;;9.70;5.50;;;;;;;9.35;88.93;99427.09;209630;1293;139711;-69
2022/12/26 10:12:17;;;;;;;10.70;6.70;;;;;;;9.53;88.90;99427.46;210392;1295;139291;-67
2022/12/26 10:17:36;;;;;;;5.80;4.80;;;;;;;9.74;89.04;99422.89;208089;1293;140307;-68
2022/12/26 10:22:47;;;;;;;8.00;5.40;;;;;;;9.99;88.43;99424.31;209141;1287;139516;-68
2022/12/26 10:27:56;;;;;;;9.40;5.70;;;;;;;10.11;88.08;99424.10;210556;1295;139998;-69
2022/12/26 10:33:11;;;;;;;8.90;6.60;;;;;;;10.14;87.64;99419.30;208659;1288;140138;-67
2022/12/26 10:38:40;;;;;;;10.10;6.10;;;;;;;10.16;87.46;99419.33;209693;1278;140280;-68
2022/12/26 10:43:44;;;;;;;7.60;5.40;;;;;;;10.15;87.26;99419.10;208502;1291;140011;-68
2022/12/26 10:48:51;;;;;;;7.30;6.00;;;;;;;10.18;87.02;99407.56;209580;1294;235458;-70
2022/12/26 10:53:58;;;;;;;9.80;5.70;;;;;;;10.14;86.79;99396.72;209478;1286;246325;-68
2022/12/26 10:59:04;;;;;;;8.60;5.90;;;;;;;10.13;86.72;99398.29;207397;1294;140139;-69
2022/12/26 11:04:24;;;;;;;8.20;6.00;;;;;;;10.19;86.81;99397.56;208668;1295;140524;-68
2022/12/26 11:10:00;;;;;;;9.90;6.60;;;;;;;10.28;86.68;99402.11;207381;1285;225989;-68
2022/12/26 11:15:38;;;;;;;7.10;5.40;;;;;;;10.36;86.67;99396.89;207600;1298;139578;-68
2022/12/26 11:20:46;;;;;;;7.10;5.30;;;;;;;10.37;86.44;99399.19;208328;1291;140274;-68
2022/12/26 11:25:56;;;;;;;6.60;4.50;;;;;;;10.49;86.67;99397.17;208049;1294;139944;-69
2022/12/26 11:31:05;;;;;;;8.20;5.80;;;;;;;10.61;86.14;99381.39;207707;1288;231699;-67
2022/12/26 11:36:31;;;;;;;11.60;7.10;;;;;;;10.66;86.15;99376.52;207681;1293;139758;-67
2022/12/26 11:41:40;;;;;;;8.20;4.90;;;;;;;10.75;85.75;99379.61;207994;1287;139437;-68
2022/12/26 11:47:13;;;;;;;6.00;4.40;;;;;;;10.84;85.78;99377.35;207926;1287;139586;-68
2022/12/26 11:52:34;;;;;;;7.60;5.10;;;;;;;10.88;85.39;99361.35;208358;1285;220317;-68
2022/12/26 11:57:40;;;;;;;5.80;4.70;;;;;;;10.97;85.25;99362.92;208641;1293;140097;-68
2022/12/26 12:02:47;;;;;;;7.50;3.60;;;;;;;10.97;85.00;99379.15;209251;1291;139300;-68
2022/12/26 12:08:02;;;;;;;8.60;5.30;;;;;;;10.89;84.80;99381.63;207820;1294;139248;-68
2022/12/26 12:13:24;;;;;;;5.50;3.70;;;;;;;10.91;84.98;99375.47;208727;1285;139990;-67
2022/12/26 12:18:54;;;;;;;7.20;4.30;;;;;;;11.01;84.97;99385.58;209870;1290;139741;-69
2022/12/26 12:24:18;;;;;;;6.40;4.30;;;;;;;11.00;84.93;99380.77;210567;1294;234799;-69
2022/12/26 12:29:47;;;;;;;9.50;4.00;;;;;;;11.06;84.55;99371.83;210462;1302;139771;-69
2022/12/26 12:35:34;;;;;;;8.50;5.40;;;;;;;11.11;84.41;99375.64;210372;1295;140691;-69
2022/12/26 12:41:17;;;;;;;5.90;4.50;;;;;;;11.15;84.47;99380.06;207957;1292;139033;-69
2022/12/26 12:46:41;;;;;;;6.40;3.80;;;;;;;11.18;84.45;99377.38;208449;1288;225514;-70
2022/12/26 12:51:55;;;;;;;6.30;4.80;;;;;;;11.22;84.13;99379.68;207535;1287;142236;-66
2022/12/26 12:57:20;;;;;;;5.50;3.80;;;;;;;11.26;84.16;99370.94;208526;1287;139732;-67
2022/12/26 13:02:39;;;;;;;4.10;3.70;;;;;;;11.23;83.94;99362.94;207680;1290;139698;-69
2022/12/26 13:07:54;;;;;;;6.90;4.70;;;;;;;11.24;83.77;99345.66;207849;1288;139484;-68
2022/12/26 13:13:20;;;;;;;4.90;4.20;;;;;;;11.24;83.91;99349.03;208405;1295;245825;-67
2022/12/26 13:18:34;;;;;;;6.30;4.60;;;;;;;11.22;83.96;99361.48;207785;1294;141282;-68
2022/12/26 13:24:22;;;;;;;11.10;4.80;;;;;;;11.19;83.69;99370.52;207597;1295;141409;-68
2022/12/26 13:29:39;;;;;;;;;;;;;;;11.11;83.82;99368.12;207451;1291;140725;-68
2022/12/26 13:34:45;;;;;;;5.00;4.20;;;;;;;11.03;83.97;99360.22;209139;1291;125681;-67
2022/12/26 13:39:51;;;;;;;6.10;4.40;;;;;;;10.97;83.35;99351.29;207934;1288;139215;-68
2022/12/26 13:45:22;;;;;;;9.40;5.40;;;;;;;10.94;83.59;99355.14;208413;1286;139934;-68
2022/12/26 13:50:46;;;;;;;7.10;4.30;;;;;;;10.89;83.60;99354.80;208404;1294;140985;-67
2022/12/26 13:56:02;;;;;;;115.90;60.00;;;;;;;10.81;83.67;99362.37;208376;1300;141164;-70
2022/12/26 14:01:29;;;;;;;15.50;10.00;;;;;;;10.80;83.63;99372.86;207641;1291;224228;-70
2022/12/26 14:06:58;;;;;;;12.20;8.70;;;;;;;10.74;83.66;99375.76;207957;1294;139453;-69
2022/12/26 14:12:07;;;;;;;11.90;9.50;;;;;;;10.67;83.57;99382.02;209411;1301;222112;-67
2022/12/26 14:17:29;;;;;;;10.00;7.00;;;;;;;10.66;83.63;99385.68;210588;1291;140059;-66
2022/12/26 14:22:54;;;;;;;12.30;6.60;;;;;;;10.64;83.73;99375.99;210269;1295;139784;-65
2022/12/26 14:28:36;;;;;;;11.30;7.20;;;;;;;10.62;83.55;99379.36;210515;1301;139911;-67
2022/12/26 14:33:46;;;;;;;7.30;5.60;;;;;;;10.59;83.82;99387.42;209924;1295;140726;-66
2022/12/26 14:38:51;;;;;;;10.40;8.10;;;;;;;10.57;83.87;99394.91;208992;1291;139387;-66
2022/12/26 14:43:56;;;;;;;9.40;7.80;;;;;;;10.54;84.24;99389.73;207870;1290;140183;-67
2022/12/26 14:49:31;;;;;;;8.50;6.20;;;;;;;10.55;84.26;99391.72;207749;1291;139071;-63
2022/12/26 14:54:45;;;;;;;10.80;7.10;;;;;;;10.52;84.22;99388.70;209361;1294;140576;-65
2022/12/26 15:00:28;;;;;;;10.60;7.70;;;;;;;10.45;84.10;99394.40;208113;1291;139790;-65
2022/12/26 15:05:38;;;;;;;10.10;6.50;;;;;;;10.37;84.24;99386.71;207843;1285;140174;-68
2022/12/26 15:10:50;;;;;;;8.60;6.40;;;;;;;10.36;84.33;99382.70;208172;1288;140438;-68
2022/12/26 15:16:06;;;;;;;9.00;6.30;;;;;;;10.31;84.48;99375.48;208555;1291;140076;-68
2022/12/26 15:21:28;;;;;;;9.60;6.00;;;;;;;10.29;84.33;99373.36;207484;1290;139094;-68
2022/12/26 15:27:14;;;;;;;8.80;5.80;;;;;;;10.30;84.40;99372.52;207886;1285;139587;-68
2022/12/26 15:32:36;;;;;;;10.50;6.00;;;;;;;10.22;84.49;99369.14;207640;1290;139839;-66
2022/12/26 15:37:52;;;;;;;7.70;5.50;;;;;;;10.15;84.41;99369.46;208087;1286;141008;-65
2022/12/26 15:43:17;;;;;;;;;;;;;;;10.04;84.32;99356.88;208332;1284;139699;-69
2022/12/26 15:48:40;;;;;;;8.90;5.50;;;;;;;9.95;84.37;99372.58;208173;1287;126311;-68
2022/12/26 15:54:02;;;;;;;8.10;6.60;;;;;;;9.94;84.79;99377.30;208860;1299;140513;-70
2022/12/26 15:59:46;;;;;;;8.80;6.40;;;;;;;9.92;84.99;99382.49;209901;1286;139058;-68
2022/12/26 16:05:12;;;;;;;10.40;6.60;;;;;;;9.96;84.79;99392.25;209435;1293;141716;-67
2022/12/26 16:10:24;;;;;;;12.20;6.70;;;;;;;9.93;84.94;99394.27;210381;1285;140532;-67
2022/12/26 16:15:29;;;;;;;11.80;6.20;;;;;;;9.90;85.06;99388.20;210525;1301;139786;-65
2022/12/26 16:25:59;;;;;;;10.20;6.40;;;;;;;9.92;85.62;99379.60;210529;1285;139510;-70
2022/12/26 16:31:03;;;;;;;;;;;;;;;9.93;85.70;99389.06;208106;1295;139810;-70
2022/12/26 16:36:10;;;;;;;10.40;7.50;;;;;;;9.95;85.48;99394.03;207971;1290;126668;-70
2022/12/26 16:41:21;;;;;;;8.80;6.10;;;;;;;9.92;85.88;99393.66;208058;1284;139850;-67
2022/12/26 16:46:29;;;;;;;7.30;6.50;;;;;;;9.87;85.93;99396.76;209561;1295;139889;-68
2022/12/26 16:51:43;;;;;;;11.90;7.80;;;;;;;9.82;85.81;99397.95;207420;1291;140249;-68
2022/12/26 16:56:51;;;;;;;10.40;6.70;;;;;;;9.75;86.05;99399.65;208410;1294;139575;-66
2022/12/26 17:01:58;;;;;;;8.10;6.60;;;;;;;9.66;86.24;99401.33;208478;1301;139906;-67
2022/12/26 17:07:15;;;;;;;11.60;6.70;;;;;;;9.66;86.43;99406.23;208658;1285;140499;-67
2022/12/26 17:12:22;;;;;;;10.60;5.90;;;;;;;9.61;86.75;99405.16;207794;1290;140397;-67
2022/12/26 17:17:31;;;;;;;9.80;5.80;;;;;;;9.58;87.07;99407.02;207751;1284;151600;-66
2022/12/26 17:22:36;;;;;;;11.30;6.60;;;;;;;9.61;87.10;99410.23;207684;1284;139467;-68
2022/12/26 17:27:41;;;;;;;8.30;6.50;;;;;;;9.58;87.24;99409.63;208458;1300;141145;-68
2022/12/26 17:32:48;;;;;;;6.00;4.70;;;;;;;9.53;87.19;99407.86;207565;1290;139147;-67
2022/12/26 17:38:01;;;;;;;6.40;5.20;;;;;;;9.49;86.99;99413.96;207772;1295;141671;-67
2022/12/26 17:43:09;;;;;;;10.40;5.80;;;;;;;9.43;87.51;99428.34;208725;1285;140536;-67
2022/12/26 17:48:13;;;;;;;6.50;5.50;;;;;;;9.43;87.83;99432.75;208023;1292;140198;-68
2022/12/26 17:53:30;;;;;;;7.40;5.30;;;;;;;9.45;87.63;99437.31;208793;1290;139675;-67
2022/12/26 17:58:34;;;;;;;9.40;5.10;;;;;;;9.41;87.75;99438.52;207930;1292;141016;-67
2022/12/26 18:03:41;;;;;;;8.10;5.30;;;;;;;9.34;87.63;99451.09;207433;1290;140980;-67
2022/12/26 18:08:46;;;;;;;8.00;5.20;;;;;;;9.33;87.76;99458.02;210350;1291;139584;-68
2022/12/26 18:13:51;;;;;;;7.90;5.70;;;;;;;9.26;87.91;99448.20;210556;1277;139189;-67
2022/12/26 18:18:56;;;;;;;6.40;4.80;;;;;;;9.24;88.04;99441.37;210355;1300;139568;-67
2022/12/26 18:24:07;;;;;;;6.80;5.50;;;;;;;9.25;87.87;99444.58;210434;1296;236051;-70
2022/12/26 18:29:11;;;;;;;5.60;5.10;;;;;;;9.25;88.10;99437.83;209497;1286;141292;-68
2022/12/26 18:34:15;;;;;;;7.70;5.30;;;;;;;9.24;88.06;99442.44;208737;1283;139890;-68
2022/12/26 18:39:20;;;;;;;10.30;4.60;;;;;;;9.25;88.15;99444.33;208563;1291;139978;-66
2022/12/26 18:44:24;;;;;;;7.90;6.30;;;;;;;9.23;88.28;99450.02;209285;1278;162222;-66
2022/12/26 18:49:30;;;;;;;10.10;5.40;;;;;;;9.17;88.31;99445.95;209178;1289;139124;-65
2022/12/26 18:54:36;;;;;;;8.50;5.30;;;;;;;9.17;88.30;99459.36;208762;1291;143063;-64
2022/12/26 18:59:41;;;;;;;7.50;6.00;;;;;;;9.14;88.21;99473.77;208218;1286;139743;-66
2022/12/26 19:04:47;;;;;;;11.40;7.00;;;;;;;9.10;88.64;99477.30;207919;1278;139876;-67
2022/12/26 19:09:54;;;;;;;11.60;6.80;;;;;;;9.09;88.45;99476.00;208209;1291;139480;-68
2022/12/26 19:15:03;;;;;;;9.00;5.70;;;;;;;9.02;88.46;99480.58;208488;1279;142779;-68
2022/12/26 19:20:23;;;;;;;8.60;5.60;;;;;;;8.98;88.78;99482.61;207702;1284;204882;-68
2022/12/26 19:25:30;;;;;;;6.60;5.20;;;;;;;9.02;89.00;99484.76;208936;1286;139550;-68
2022/12/26 19:30:40;;;;;;;9.10;5.80;;;;;;;8.98;88.50;99482.65;207580;1297;140046;-65
2022/12/26 19:35:55;;;;;;;7.70;4.70;;;;;;;8.90;88.64;99466.02;208864;1301;139178;-66
2022/12/26 19:41:10;;;;;;;8.90;5.90;;;;;;;8.88;88.60;99467.14;209675;1294;140118;-66
2022/12/26 19:46:18;;;;;;;7.70;5.50;;;;;;;8.89;88.93;99473.31;208192;1292;138955;-68
2022/12/26 19:51:24;;;;;;;12.90;5.80;;;;;;;8.89;88.87;99469.46;209336;1295;139261;-68
2022/12/26 19:56:30;;;;;;;10.20;5.80;;;;;;;8.95;88.80;99471.25;208721;1293;140656;-68
2022/12/26 20:01:36;;;;;;;8.80;6.40;;;;;;;8.94;88.75;99479.41;208730;1295;140188;-65
2022/12/26 20:06:40;;;;;;;6.60;5.00;;;;;;;8.91;88.64;99486.20;208948;1294;139745;-65
2022/12/26 20:11:48;;;;;;;8.60;4.80;;;;;;;8.90;88.64;99494.84;210416;1295;140348;-67
2022/12/26 20:16:55;;;;;;;9.70;6.60;;;;;;;8.88;88.68;99504.36;210523;1295;139132;-65
2022/12/26 20:22:10;;;;;;;7.70;6.30;;;;;;;8.89;88.75;99512.36;208965;1285;247197;-67
2022/12/26 20:27:16;;;;;;;10.70;5.70;;;;;;;8.95;88.84;99521.71;208202;1294;236422;-67
2022/12/26 20:32:21;;;;;;;6.80;4.90;;;;;;;8.94;89.04;99529.29;208431;1291;138929;-65
2022/12/26 20:37:27;;;;;;;8.80;6.60;;;;;;;8.95;89.13;99527.61;207740;1285;396397;-65
2022/12/26 20:42:31;;;;;;;8.30;6.30;;;;;;;9.02;89.05;99535.69;208335;1301;140374;-65
2022/12/26 20:47:35;;;;;;;8.30;5.40;;;;;;;8.98;89.09;99539.63;209576;1291;139672;-64
2022/12/26 20:52:39;;;;;;;5.90;5.00;;;;;;;8.95;89.02;99526.59;207580;1287;140475;-65
2022/12/26 20:57:43;;;;;;;8.30;6.90;;;;;;;9.00;89.14;99520.29;208018;1286;140229;-67
2022/12/26 21:02:47;;;;;;;10.20;5.60;;;;;;;9.01;89.27;99518.27;207400;1301;140429;-63
2022/12/26 21:07:52;;;;;;;7.00;5.30;;;;;;;9.01;89.21;99518.80;207598;1288;140110;-66
2022/12/26 21:12:56;;;;;;;6.70;5.60;;;;;;;9.04;89.15;99521.34;208147;1278;140912;-63
2022/12/26 21:18:00;;;;;;;8.00;7.30;;;;;;;9.00;89.02;99535.23;208602;1291;139531;-66
2022/12/26 21:23:03;;;;;;;7.00;4.80;;;;;;;8.96;89.16;99541.98;208783;1293;140411;-66
2022/12/26 21:28:07;;;;;;;6.50;4.90;;;;;;;8.96;88.89;99532.47;207827;1290;152716;-64
2022/12/26 21:33:12;;;;;;;5.90;4.50;;;;;;;8.91;88.83;99522.39;208673;1291;140719;-68
2022/12/26 21:38:16;;;;;;;7.10;4.50;;;;;;;8.84;88.91;99520.27;208875;1284;139154;-63
2022/12/26 21:43:21;;;;;;;5.20;4.70;;;;;;;8.84;89.00;99518.27;208267;1292;140421;-67
2022/12/26 21:48:26;;;;;;;6.10;4.70;;;;;;;8.79;88.94;99512.98;208150;1294;150026;-64
2022/12/26 21:53:31;;;;;;;7.00;4.30;;;;;;;8.76;89.11;99508.65;208421;1293;138941;-66
2022/12/26 22:09:21;;;;;;;4.90;4.20;;;;;;;8.70;88.96;99514.50;210486;1284;139528;-67
2022/12/26 22:14:27;;;;;;;5.40;4.40;;;;;;;8.74;88.68;99523.73;210321;1295;140113;-64
2022/12/26 22:19:34;;;;;;;3.80;3.50;;;;;;;8.73;88.72;99518.84;210072;1295;140030;-67
2022/12/26 22:24:38;;;;;;;6.30;2.90;;;;;;;8.71;88.68;99515.06;208612;1292;140504;-68
2022/12/26 22:29:43;;;;;;;4.90;4.40;;;;;;;8.70;88.50;99522.36;209573;1285;140524;-69
2022/12/26 22:34:49;;;;;;;4.40;3.60;;;;;;;8.65;88.53;99515.27;208136;1293;140386;-67
2022/12/26 22:39:56;;;;;;;4.00;2.90;;;;;;;8.60;88.36;99524.33;208959;1278;140835;-68
2022/12/26 22:45:00;;;;;;;7.00;3.60;;;;;;;8.57;88.36;99519.85;209015;1287;139444;-66
2022/12/26 22:50:05;;;;;;;5.70;3.60;;;;;;;8.53;88.52;99522.74;207791;1292;139104;-67
2022/12/26 22:55:11;;;;;;;5.50;3.50;;;;;;;8.50;88.63;99518.77;208946;1285;141248;-69
2022/12/26 23:00:15;;;;;;;11.80;4.60;;;;;;;8.51;88.73;99507.16;208188;1293;140381;-68
2022/12/26 23:05:19;;;;;;;6.90;4.20;;;;;;;8.47;88.67;99502.39;207640;1292;139187;-69
2022/12/26 23:10:24;;;;;;;5.80;3.30;;;;;;;8.41;88.50;99500.64;208144;1278;139306;-67
2022/12/26 23:15:28;;;;;;;7.60;5.30;;;;;;;8.42;88.37;99498.21;207519;1298;139874;-70
2022/12/26 23:26:00;;;;;;;7.60;5.20;;;;;;;8.31;88.42;99484.52;208336;1293;140033;-67
2022/12/26 23:31:05;;;;;;;9.40;4.90;;;;;;;8.27;88.28;99480.38;208670;1290;139753;-69
2022/12/26 23:36:11;;;;;;;7.20;5.50;;;;;;;8.20;88.52;99476.80;208012;1288;138584;-68
2022/12/26 23:41:16;;;;;;;7.00;4.80;;;;;;;8.18;88.57;99474.62;207514;1278;138678;-67
2022/12/26 23:46:21;;;;;;;5.60;5.00;;;;;;;8.16;88.19;99472.28;207696;1288;140029;-68
2022/12/26 23:51:27;;;;;;;11.80;5.60;;;;;;;8.13;88.69;99464.81;210495;1295;140768;-70
2022/12/26 23:56:32;;;;;;;6.50;4.00;;;;;;;8.11;88.71;99464.30;210078;1294;143069;-69
